createdAt,value
2018-06-17T00:01:09.397Z,16.17
2018-06-17T00:03:37.871Z,15.23
2018-06-17T00:06:06.310Z,32.30
2018-06-17T00:08:34.757Z,16.07
2018-06-17T00:11:03.187Z,17.90
2018-06-17T00:13:31.612Z,16.93
2018-06-17T00:16:00.030Z,18.10
2018-06-17T00:18:28.564Z,21.47
2018-06-17T00:20:57.279Z,14.53
2018-06-17T00:23:25.724Z,63.50
2018-06-17T00:25:53.904Z,28.73
2018-06-17T00:28:22.395Z,19.97
2018-06-17T00:30:50.856Z,20.57
2018-06-17T00:33:19.056Z,9.90
2018-06-17T00:35:47.542Z,15.93
2018-06-17T00:38:15.974Z,16.77
2018-06-17T00:40:44.411Z,16.03
2018-06-17T00:43:12.817Z,10.33
2018-06-17T00:45:41.230Z,14.50
2018-06-17T00:48:09.643Z,12.20
2018-06-17T00:50:38.132Z,29.63
2018-06-17T00:53:06.572Z,18.70
2018-06-17T00:55:35.240Z,33.23
2018-06-17T00:58:03.688Z,16.20
2018-06-17T01:00:32.167Z,16.83
2018-06-17T01:03:00.622Z,14.90
2018-06-17T01:05:29.023Z,29.47
2018-06-17T01:07:57.969Z,55.87
2018-06-17T01:10:26.423Z,59.47
2018-06-17T01:12:54.848Z,41.00
2018-06-17T01:15:23.288Z,40.30
2018-06-17T01:17:51.706Z,26.20
2018-06-17T01:20:20.110Z,16.80
2018-06-17T01:22:48.666Z,13.90
2018-06-17T01:25:17.081Z,14.23
2018-06-17T01:27:45.645Z,15.30
2018-06-17T01:30:14.069Z,17.07
2018-06-17T01:32:42.494Z,18.93
2018-06-17T01:35:10.955Z,12.20
2018-06-17T01:37:39.465Z,15.20
2018-06-17T01:40:07.909Z,11.17
2018-06-17T01:42:36.332Z,13.87
2018-06-17T01:45:04.817Z,10.37
2018-06-17T01:47:33.241Z,12.70
2018-06-17T01:50:01.635Z,12.60
2018-06-17T01:52:30.081Z,11.73
2018-06-17T01:54:58.512Z,13.70
2018-06-17T01:57:26.921Z,17.13
2018-06-17T01:59:55.465Z,9.00
2018-06-17T02:02:23.880Z,11.67
2018-06-17T02:04:57.753Z,10.03
2018-06-17T02:07:31.406Z,10.30
2018-06-17T02:10:05.220Z,8.27
2018-06-17T02:12:33.648Z,11.33
2018-06-17T02:15:02.029Z,17.87
2018-06-17T02:17:30.435Z,11.03
2018-06-17T02:19:58.957Z,9.93
2018-06-17T02:22:27.144Z,12.60
2018-06-17T02:24:55.642Z,14.23
2018-06-17T02:27:24.032Z,9.80
2018-06-17T02:29:52.457Z,8.33
2018-06-17T02:32:20.865Z,12.67
2018-06-17T02:34:49.386Z,13.73
2018-06-17T02:37:17.792Z,15.93
2018-06-17T02:39:46.216Z,14.60
2018-06-17T02:42:14.642Z,11.50
2018-06-17T02:44:43.053Z,10.33
2018-06-17T02:47:16.802Z,13.43
2018-06-17T02:49:47.947Z,14.00
2018-06-17T02:52:25.711Z,12.97
2018-06-17T02:54:54.849Z,11.90
2018-06-17T02:57:23.421Z,10.77
2018-06-17T02:59:51.835Z,14.10
2018-06-17T03:02:25.525Z,12.30
2018-06-17T03:04:54.017Z,13.20
2018-06-17T03:07:22.461Z,14.20
2018-06-17T03:09:50.885Z,14.30
2018-06-17T03:12:19.327Z,11.13
2018-06-17T03:14:47.771Z,16.33
2018-06-17T03:17:16.181Z,15.60
2018-06-17T03:19:44.539Z,10.50
2018-06-17T03:22:12.952Z,13.23
2018-06-17T03:24:46.756Z,12.07
2018-06-17T03:27:20.507Z,10.50
2018-06-17T03:29:54.377Z,10.30
2018-06-17T03:32:27.965Z,11.07
2018-06-17T03:35:01.805Z,11.20
2018-06-17T03:37:30.268Z,10.93
2018-06-17T03:39:58.745Z,10.23
2018-06-17T03:42:27.144Z,16.40
2018-06-17T03:44:55.590Z,12.13
2018-06-17T03:47:24.072Z,10.67
2018-06-17T03:49:52.465Z,12.17
2018-06-17T03:52:20.893Z,10.87
2018-06-17T03:54:49.344Z,10.03
2018-06-17T03:57:17.760Z,14.93
2018-06-17T03:59:46.236Z,8.70
2018-06-17T04:02:14.772Z,11.40
2018-06-17T04:04:48.540Z,12.07
2018-06-17T04:07:16.961Z,10.93
2018-06-17T04:09:45.433Z,14.20
2018-06-17T04:12:13.857Z,14.53
2018-06-17T04:14:42.268Z,9.33
2018-06-17T04:17:15.141Z,12.00
2018-06-17T04:19:45.194Z,8.93
2018-06-17T04:22:13.976Z,11.90
2018-06-17T04:24:42.566Z,15.27
2018-06-17T04:27:11.023Z,14.53
2018-06-17T04:29:39.470Z,11.10
2018-06-17T04:32:07.892Z,10.80
2018-06-17T04:34:36.412Z,13.20
2018-06-17T04:37:05.120Z,9.77
2018-06-17T04:39:33.752Z,8.70
2018-06-17T04:42:02.176Z,16.30
2018-06-17T04:44:30.552Z,13.23
2018-06-17T04:46:59.076Z,9.47
2018-06-17T04:49:27.512Z,10.30
2018-06-17T04:51:55.988Z,11.40
2018-06-17T04:54:24.410Z,8.47
2018-06-17T04:56:52.880Z,15.73
2018-06-17T04:59:21.488Z,15.40
2018-06-17T05:01:50.085Z,13.50
2018-06-17T05:04:18.670Z,12.10
2018-06-17T05:06:47.355Z,10.03
2018-06-17T05:09:15.837Z,9.70
2018-06-17T05:11:44.511Z,8.13
2018-06-17T05:14:13.001Z,8.70
2018-06-17T05:16:41.408Z,7.43
2018-06-17T05:19:09.796Z,13.00
2018-06-17T05:21:38.428Z,7.63
2018-06-17T05:24:06.847Z,10.93
2018-06-17T05:26:36.639Z,12.07
2018-06-17T05:29:05.306Z,9.63
2018-06-17T05:31:33.727Z,6.47
2018-06-17T05:34:02.124Z,11.27
2018-06-17T05:36:30.522Z,5.20
2018-06-17T05:38:59.105Z,10.40
2018-06-17T05:41:27.547Z,8.33
2018-06-17T05:43:56.307Z,9.40
2018-06-17T05:46:24.910Z,8.40
2018-06-17T05:48:53.425Z,11.73
2018-06-17T05:51:21.817Z,10.77
2018-06-17T05:53:50.223Z,9.50
2018-06-17T05:56:18.642Z,7.97
2018-06-17T05:58:47.046Z,10.43
2018-06-17T06:01:15.864Z,7.40
2018-06-17T06:03:44.296Z,7.97
2018-06-17T06:06:12.728Z,11.77
2018-06-17T06:08:41.307Z,13.93
2018-06-17T06:11:10.098Z,9.17
2018-06-17T06:13:38.503Z,16.13
2018-06-17T06:16:07.007Z,10.60
2018-06-17T06:18:35.364Z,9.47
2018-06-17T06:21:03.756Z,8.50
2018-06-17T06:23:32.171Z,7.07
2018-06-17T06:26:00.546Z,11.70
2018-06-17T06:28:29.163Z,8.77
2018-06-17T06:30:57.637Z,9.17
2018-06-17T06:33:26.008Z,10.40
2018-06-17T06:35:54.466Z,7.77
2018-06-17T06:38:22.946Z,7.50
2018-06-17T06:40:51.392Z,7.17
2018-06-17T06:43:19.845Z,6.47
2018-06-17T06:45:48.434Z,8.47
2018-06-17T06:48:17.136Z,7.97
2018-06-17T06:50:45.550Z,12.33
2018-06-17T06:53:13.964Z,7.23
2018-06-17T06:55:42.448Z,11.93
2018-06-17T06:58:10.953Z,9.23
2018-06-17T07:00:39.404Z,10.80
2018-06-17T07:03:18.878Z,8.17
2018-06-17T07:05:58.870Z,9.53
2018-06-17T07:08:38.812Z,9.63
2018-06-17T07:11:07.394Z,10.40
2018-06-17T07:13:35.852Z,9.77
2018-06-17T07:16:15.747Z,7.70
2018-06-17T07:18:44.169Z,11.83
2018-06-17T07:21:12.632Z,11.33
2018-06-17T07:23:41.143Z,8.80
2018-06-17T07:26:34.429Z,9.90
2018-06-17T07:29:14.534Z,8.57
2018-06-17T07:31:43.099Z,9.13
2018-06-17T07:34:12.489Z,6.13
2018-06-17T07:36:41.193Z,9.87
2018-06-17T07:41:20.947Z,10.93
2018-06-17T07:43:49.521Z,7.07
2018-06-17T07:46:17.896Z,5.70
2018-06-17T07:49:55.436Z,6.63
2018-06-17T07:52:36.522Z,11.47
2018-06-17T07:55:05.100Z,6.73
2018-06-17T07:57:34.641Z,7.53
2018-06-17T08:00:03.168Z,5.90
2018-06-17T08:02:31.592Z,7.63
2018-06-17T08:05:00.068Z,9.20
2018-06-17T08:07:29.270Z,7.83
2018-06-17T08:09:58.406Z,8.70
2018-06-17T08:12:26.896Z,6.27
2018-06-17T08:14:55.686Z,7.30
2018-06-17T08:17:24.188Z,7.40
2018-06-17T08:19:52.635Z,8.20
2018-06-17T08:22:21.124Z,6.93
2018-06-17T08:24:49.627Z,8.50
2018-06-17T08:27:18.107Z,6.13
2018-06-17T08:29:46.614Z,5.00
2018-06-17T08:32:15.025Z,8.23
2018-06-17T08:34:43.526Z,7.37
2018-06-17T08:37:11.976Z,5.90
2018-06-17T08:39:40.408Z,7.97
2018-06-17T08:42:09.063Z,13.73
2018-06-17T08:44:37.443Z,9.77
2018-06-17T08:47:06.058Z,8.30
2018-06-17T08:49:34.483Z,9.93
2018-06-17T08:52:02.979Z,6.63
2018-06-17T08:54:33.230Z,15.30
2018-06-17T08:57:01.894Z,11.37
2018-06-17T08:59:30.843Z,7.20
2018-06-17T09:01:59.763Z,8.73
2018-06-17T09:04:28.465Z,8.43
2018-06-17T09:06:56.928Z,9.40
2018-06-17T09:09:25.688Z,6.43
2018-06-17T09:11:54.332Z,6.03
2018-06-17T09:14:22.872Z,12.00
2018-06-17T09:16:51.296Z,8.93
2018-06-17T09:19:19.800Z,11.70
2018-06-17T09:21:48.326Z,6.80
2018-06-17T09:24:17.024Z,9.13
2018-06-17T09:26:45.560Z,9.03
2018-06-17T09:29:14.084Z,12.07
2018-06-17T09:31:42.567Z,8.90
2018-06-17T09:34:11.092Z,7.60
2018-06-17T09:36:39.660Z,6.50
2018-06-17T09:39:10.280Z,9.07
2018-06-17T09:41:39.993Z,7.17
2018-06-17T09:44:09.183Z,5.33
2018-06-17T09:46:37.641Z,7.90
2018-06-17T09:49:06.222Z,6.83
2018-06-17T09:51:34.668Z,6.50
2018-06-17T09:54:03.780Z,7.47
2018-06-17T09:56:32.384Z,6.47
2018-06-17T09:59:00.595Z,5.87
2018-06-17T10:01:29.065Z,7.17
2018-06-17T10:03:57.465Z,5.97
2018-06-17T10:06:26.855Z,7.80
2018-06-17T10:08:55.374Z,5.63
2018-06-17T10:11:23.973Z,5.73
2018-06-17T10:13:52.511Z,7.37
2018-06-17T10:16:21.256Z,6.63
2018-06-17T10:18:49.992Z,5.63
2018-06-17T10:21:18.492Z,7.43
2018-06-17T10:23:47.122Z,5.33
2018-06-17T10:26:15.541Z,7.73
2018-06-17T10:28:44.010Z,5.77
2018-06-17T10:31:12.498Z,9.17
2018-06-17T10:33:41.850Z,9.23
2018-06-17T10:36:10.369Z,6.33
2018-06-17T10:38:38.802Z,6.53
2018-06-17T10:41:07.244Z,6.20
2018-06-17T10:43:35.710Z,5.80
2018-06-17T10:46:04.157Z,6.07
2018-06-17T10:48:32.584Z,9.07
2018-06-17T10:51:01.161Z,8.80
2018-06-17T10:53:29.680Z,6.60
2018-06-17T10:55:58.344Z,5.70
2018-06-17T10:58:26.746Z,9.13
2018-06-17T11:00:55.184Z,10.97
2018-06-17T11:03:23.648Z,7.73
2018-06-17T11:05:52.356Z,5.17
2018-06-17T11:08:20.821Z,7.10
2018-06-17T11:10:49.305Z,8.60
2018-06-17T11:13:17.925Z,10.00
2018-06-17T11:15:47.338Z,5.27
2018-06-17T11:18:15.820Z,5.67
2018-06-17T11:20:44.635Z,10.97
2018-06-17T11:23:13.070Z,7.20
2018-06-17T11:25:41.655Z,6.20
2018-06-17T11:28:10.088Z,6.77
2018-06-17T11:30:45.033Z,5.00
2018-06-17T11:33:13.709Z,5.80
2018-06-17T11:35:42.167Z,11.77
2018-06-17T11:38:10.597Z,8.83
2018-06-17T11:40:39.041Z,6.43
2018-06-17T11:43:07.709Z,4.27
2018-06-17T11:45:36.179Z,6.77
2018-06-17T11:48:04.601Z,7.43
2018-06-17T11:50:33.273Z,6.07
2018-06-17T11:53:01.739Z,4.27
2018-06-17T11:55:31.277Z,5.60
2018-06-17T11:57:59.651Z,5.90
2018-06-17T12:00:28.118Z,6.17
2018-06-17T12:02:56.597Z,9.10
2018-06-17T12:05:25.105Z,8.93
2018-06-17T12:07:53.512Z,7.23
2018-06-17T12:10:22.217Z,6.50
2018-06-17T12:12:50.655Z,7.17
2018-06-17T12:15:19.146Z,7.83
2018-06-17T12:17:47.645Z,7.90
2018-06-17T12:20:16.120Z,6.77
2018-06-17T12:22:44.703Z,7.90
2018-06-17T12:25:14.205Z,5.37
2018-06-17T12:27:42.729Z,6.83
2018-06-17T12:30:11.168Z,7.63
2018-06-17T12:32:39.581Z,7.73
2018-06-17T12:35:08.065Z,7.40
2018-06-17T12:37:36.764Z,13.50
2018-06-17T12:40:05.323Z,10.27
2018-06-17T12:42:33.851Z,7.23
2018-06-17T12:45:02.309Z,7.77
2018-06-17T12:47:30.733Z,7.83
2018-06-17T12:49:59.300Z,8.70
2018-06-17T12:52:28.314Z,10.73
2018-06-17T12:54:56.736Z,9.97
2018-06-17T12:57:25.698Z,8.70
2018-06-17T12:59:54.126Z,8.73
2018-06-17T13:02:22.531Z,8.77
2018-06-17T13:04:51.504Z,9.43
2018-06-17T13:07:19.884Z,10.13
2018-06-17T13:09:48.821Z,6.10
2018-06-17T13:12:17.265Z,8.50
2018-06-17T13:14:45.731Z,10.53
2018-06-17T13:17:14.113Z,8.77
2018-06-17T13:19:43.002Z,6.33
2018-06-17T13:22:11.457Z,7.83
2018-06-17T13:24:39.852Z,6.63
2018-06-17T13:27:08.296Z,10.20
2018-06-17T13:29:36.695Z,10.80
2018-06-17T13:32:05.648Z,6.70
2018-06-17T13:34:34.108Z,5.73
2018-06-17T13:37:02.504Z,11.10
2018-06-17T13:39:30.956Z,22.13
2018-06-17T13:41:59.365Z,6.13
2018-06-17T13:44:27.745Z,9.50
2018-06-17T13:46:56.171Z,8.30
2018-06-17T13:49:24.658Z,8.67
2018-06-17T13:51:53.160Z,9.43
2018-06-17T13:54:21.686Z,14.30
2018-06-17T13:56:50.077Z,7.00
2018-06-17T13:59:18.613Z,9.83
2018-06-17T14:01:47.415Z,8.83
2018-06-17T14:04:15.834Z,9.20
2018-06-17T14:06:44.423Z,6.80
2018-06-17T14:09:12.874Z,9.00
2018-06-17T14:11:41.235Z,6.63
2018-06-17T14:14:11.537Z,7.00
2018-06-17T14:16:39.999Z,5.93
2018-06-17T14:19:08.432Z,6.30
2018-06-17T14:21:36.823Z,7.93
2018-06-17T14:24:05.454Z,7.80
2018-06-17T14:26:33.904Z,6.70
2018-06-17T14:29:02.335Z,22.97
2018-06-17T14:31:31.935Z,12.30
2018-06-17T14:34:00.059Z,10.10
2018-06-17T14:36:34.333Z,7.73
2018-06-17T14:39:02.854Z,9.67
2018-06-17T14:41:31.328Z,9.23
2018-06-17T14:44:05.020Z,8.17
2018-06-17T14:46:38.784Z,15.70
2018-06-17T14:49:12.662Z,10.97
2018-06-17T14:51:46.428Z,12.43
2018-06-17T14:54:14.980Z,11.10
2018-06-17T14:56:43.377Z,7.37
2018-06-17T14:59:11.776Z,9.07
2018-06-17T15:01:40.222Z,14.73
2018-06-17T15:04:08.641Z,9.13
2018-06-17T15:06:37.052Z,10.67
2018-06-17T15:09:08.576Z,8.03
2018-06-17T15:11:37.028Z,12.57
2018-06-17T15:14:05.575Z,7.03
2018-06-17T15:16:33.976Z,14.37
2018-06-17T15:19:02.386Z,4.30
2018-06-17T15:21:30.781Z,6.93
2018-06-17T15:23:59.168Z,7.83
2018-06-17T15:26:27.624Z,8.90
2018-06-17T15:28:56.024Z,7.40
2018-06-17T15:32:31.750Z,9.00
2018-06-17T15:35:05.366Z,8.60
2018-06-17T15:37:39.606Z,8.00
2018-06-17T15:40:08.003Z,8.80
2018-06-17T15:42:36.384Z,10.83
2018-06-17T15:45:04.842Z,9.07
2018-06-17T15:47:35.981Z,8.43
2018-06-17T15:50:04.449Z,5.77
2018-06-17T15:52:32.912Z,7.40
2018-06-17T15:55:02.281Z,7.83
2018-06-17T15:57:30.751Z,11.27
2018-06-17T15:59:59.180Z,11.47
2018-06-17T16:02:27.624Z,7.70
2018-06-17T16:04:56.837Z,6.33
2018-06-17T16:07:25.538Z,6.87
2018-06-17T16:09:54.094Z,8.33
2018-06-17T16:12:28.056Z,6.33
2018-06-17T16:15:01.869Z,6.37
2018-06-17T16:17:35.484Z,6.63
2018-06-17T16:20:09.168Z,4.20
2018-06-17T16:22:37.632Z,6.37
2018-06-17T16:25:06.169Z,7.77
2018-06-17T16:27:35.476Z,4.00
2018-06-17T16:30:03.973Z,9.27
2018-06-17T16:32:32.368Z,7.47
2018-06-17T16:35:00.753Z,7.77
2018-06-17T16:37:29.185Z,9.40
2018-06-17T16:39:57.597Z,11.33
2018-06-17T16:42:25.983Z,9.30
2018-06-17T16:44:54.503Z,7.30
2018-06-17T16:47:22.888Z,6.13
2018-06-17T16:49:51.576Z,5.77
2018-06-17T16:53:28.056Z,6.80
2018-06-17T16:56:02.128Z,11.60
2018-06-17T16:58:35.843Z,5.07
2018-06-17T17:01:04.416Z,6.07
2018-06-17T17:03:32.880Z,8.17
2018-06-17T17:06:01.333Z,10.33
2018-06-17T17:08:29.740Z,338.77
2018-06-17T17:10:58.287Z,155.50
2018-06-17T17:13:26.692Z,1162.53
2018-06-17T17:15:55.119Z,1999.90
2018-06-17T17:18:23.572Z,1381.30
2018-06-17T17:20:51.992Z,151.30
2018-06-17T17:23:20.421Z,515.93
2018-06-17T17:25:48.916Z,704.77
2018-06-17T17:28:17.381Z,461.10
2018-06-17T17:30:48.419Z,638.43
2018-06-17T17:33:22.120Z,355.80
2018-06-17T17:35:55.995Z,122.27
2018-06-17T17:38:27.720Z,23.60
2018-06-17T17:41:01.773Z,667.03
2018-06-17T17:43:30.225Z,1412.37
2018-06-17T17:47:03.825Z,23.53
2018-06-17T17:49:32.212Z,22.20
2018-06-17T17:52:00.628Z,16.70
2018-06-17T17:54:29.008Z,24.00
2018-06-17T17:56:57.518Z,21.80
2018-06-17T17:59:25.924Z,18.77
2018-06-17T18:01:54.348Z,32.40
2018-06-17T18:04:24.424Z,13.93
2018-06-17T18:06:53.505Z,11.43
2018-06-17T18:09:25.814Z,11.20
2018-06-17T18:11:56.652Z,9.43
2018-06-17T18:14:25.554Z,10.63
2018-06-17T18:16:53.949Z,7.57
2018-06-17T18:19:27.546Z,8.33
2018-06-17T18:21:56.568Z,9.53
2018-06-17T18:24:25.132Z,10.10
2018-06-17T18:26:58.864Z,11.33
2018-06-17T18:29:32.536Z,8.53
2018-06-17T18:32:06.249Z,15.70
2018-06-17T18:34:40.076Z,7.03
2018-06-17T18:37:08.616Z,13.07
2018-06-17T18:39:37.004Z,8.00
2018-06-17T18:42:05.436Z,8.57
2018-06-17T18:44:34.864Z,5.83
2018-06-17T18:47:03.370Z,7.90
2018-06-17T18:49:31.910Z,5.90
2018-06-17T18:52:00.318Z,9.50
2018-06-17T18:54:28.727Z,7.47
2018-06-17T18:56:57.460Z,17.60
2018-06-17T18:59:25.897Z,11.97
2018-06-17T19:01:54.340Z,10.00
2018-06-17T19:04:22.784Z,7.87
2018-06-17T19:06:51.239Z,10.17
2018-06-17T19:09:25.001Z,8.90
2018-06-17T19:11:59.148Z,18.37
2018-06-17T19:14:32.880Z,9.83
2018-06-17T19:17:06.692Z,10.80
2018-06-17T19:19:35.147Z,9.40
2018-06-17T19:22:07.771Z,7.97
2018-06-17T19:24:36.235Z,8.13
2018-06-17T19:27:04.777Z,11.00
2018-06-17T19:29:33.249Z,13.23
2018-06-17T19:32:01.749Z,8.40
2018-06-17T19:34:30.249Z,8.37
2018-06-17T19:36:58.735Z,17.50
2018-06-17T19:39:27.243Z,20.53
2018-06-17T19:41:55.672Z,8.33
2018-06-17T19:44:24.128Z,11.53
2018-06-17T19:46:52.535Z,8.97
2018-06-17T19:49:25.151Z,6.60
2018-06-17T19:51:58.868Z,51.13
2018-06-17T19:55:35.722Z,10.30
2018-06-17T19:58:09.279Z,23.83
2018-06-17T20:00:40.272Z,8.90
2018-06-17T20:03:08.853Z,8.33
2018-06-17T20:05:37.365Z,86.97
2018-06-17T20:08:06.039Z,13.37
2018-06-17T20:10:34.691Z,7.47
2018-06-17T20:13:03.637Z,10.70
2018-06-17T20:15:32.259Z,13.10
2018-06-17T20:18:00.745Z,6.60
2018-06-17T20:20:29.293Z,9.50
2018-06-17T20:22:59.553Z,6.13
2018-06-17T20:25:28.668Z,8.43
2018-06-17T20:27:57.219Z,7.00
2018-06-17T20:30:25.829Z,8.03
2018-06-17T20:33:00.488Z,13.67
2018-06-17T20:35:34.465Z,13.10
2018-06-17T20:38:08.202Z,13.47
2018-06-17T20:40:42.050Z,8.87
2018-06-17T20:43:15.844Z,10.87
2018-06-17T20:45:44.386Z,10.97
2018-06-17T20:48:12.815Z,16.20
2018-06-17T20:50:41.329Z,11.90
2018-06-17T20:53:09.744Z,13.63
2018-06-17T20:55:38.141Z,17.07
2018-06-17T20:58:06.637Z,17.77
2018-06-17T21:00:34.987Z,21.00
2018-06-17T21:03:05.944Z,13.00
2018-06-17T21:05:34.717Z,28.53
2018-06-17T21:08:03.206Z,23.77
2018-06-17T21:10:31.883Z,8.30
2018-06-17T21:13:00.390Z,10.63
2018-06-17T21:15:28.866Z,10.47
2018-06-17T21:17:57.389Z,15.00
2018-06-17T21:20:31.115Z,9.60
2018-06-17T21:23:05.090Z,7.70
2018-06-17T21:25:39.019Z,15.97
2018-06-17T21:28:07.745Z,11.77
2018-06-17T21:30:36.296Z,11.07
2018-06-17T21:33:04.684Z,8.53
2018-06-17T21:35:33.136Z,8.30
2018-06-17T21:38:01.604Z,8.57
2018-06-17T21:40:30.036Z,12.37
2018-06-17T21:42:58.442Z,12.30
2018-06-17T21:45:26.828Z,9.60
2018-06-17T21:47:55.292Z,9.17
2018-06-17T21:50:23.757Z,8.57
2018-06-17T21:52:52.327Z,10.17
2018-06-17T21:55:25.070Z,9.97
2018-06-17T21:57:53.488Z,23.90
2018-06-17T22:00:21.936Z,18.00
2018-06-17T22:02:50.326Z,16.37
2018-06-17T22:05:18.784Z,11.30
2018-06-17T22:07:52.510Z,12.37
2018-06-17T22:10:26.280Z,13.37
2018-06-17T22:13:00.778Z,14.67
2018-06-17T22:15:34.558Z,12.63
2018-06-17T22:18:03.333Z,10.33
2018-06-17T22:20:31.808Z,12.60
2018-06-17T22:23:00.221Z,17.53
2018-06-17T22:25:28.658Z,15.13
2018-06-17T22:27:57.044Z,8.90
2018-06-17T22:30:25.491Z,13.27
2018-06-17T22:32:53.907Z,7.23
2018-06-17T22:35:22.318Z,8.13
2018-06-17T22:37:50.975Z,11.20
2018-06-17T22:40:19.387Z,15.00
2018-06-17T22:42:47.781Z,15.50
2018-06-17T22:45:16.171Z,18.43
2018-06-17T22:47:49.927Z,13.77
2018-06-17T22:50:18.327Z,12.80
2018-06-17T22:52:58.136Z,19.17
2018-06-17T22:55:26.524Z,16.20
2018-06-17T22:58:00.232Z,15.87
2018-06-17T23:00:33.953Z,18.73
2018-06-17T23:03:07.786Z,11.90
2018-06-17T23:05:41.547Z,12.27
2018-06-17T23:08:15.269Z,6.80
2018-06-17T23:10:43.659Z,9.30
2018-06-17T23:13:12.065Z,9.97
2018-06-17T23:15:40.471Z,9.60
2018-06-17T23:18:08.905Z,12.90
2018-06-17T23:20:37.403Z,8.53
2018-06-17T23:23:05.959Z,12.10
2018-06-17T23:25:34.411Z,11.10
2018-06-17T23:28:02.805Z,6.60
2018-06-17T23:30:31.343Z,8.70
2018-06-17T23:32:59.723Z,8.57
2018-06-17T23:35:28.206Z,8.47
2018-06-17T23:37:56.600Z,10.30
2018-06-17T23:40:25.024Z,13.93
2018-06-17T23:42:53.433Z,8.40
2018-06-17T23:45:21.839Z,14.53
2018-06-17T23:47:55.627Z,14.00
2018-06-17T23:50:29.424Z,14.17
2018-06-17T23:53:03.145Z,8.93
2018-06-17T23:55:36.839Z,13.07
2018-06-17T23:58:05.253Z,8.37
